createdAt,value
2018-06-16T00:03:28.202Z,15.64
2018-06-16T00:08:22.334Z,15.54
2018-06-16T00:13:16.801Z,15.45
2018-06-16T00:18:11.248Z,15.37
2018-06-16T00:23:05.749Z,15.34
2018-06-16T00:28:00.152Z,15.27
2018-06-16T00:32:54.702Z,15.14
2018-06-16T00:37:49.143Z,15.09
2018-06-16T00:42:44.220Z,15.04
2018-06-16T00:47:38.958Z,14.99
2018-06-16T00:52:33.384Z,14.99
2018-06-16T00:57:45.052Z,14.99
2018-06-16T01:02:39.761Z,14.82
2018-06-16T01:07:34.168Z,14.69
2018-06-16T01:12:28.660Z,14.62
2018-06-16T01:17:23.093Z,14.56
2018-06-16T01:22:17.566Z,14.48
2018-06-16T01:27:12.012Z,14.52
2018-06-16T01:32:06.996Z,14.65
2018-06-16T01:37:01.473Z,14.52
2018-06-16T01:41:55.903Z,14.40
2018-06-16T01:46:50.436Z,14.44
2018-06-16T01:51:44.961Z,14.34
2018-06-16T01:56:39.417Z,14.27
2018-06-16T02:01:33.865Z,14.38
2018-06-16T02:06:28.290Z,14.47
2018-06-16T02:11:22.704Z,14.43
2018-06-16T02:16:17.138Z,14.39
2018-06-16T02:21:11.581Z,14.27
2018-06-16T02:26:06.225Z,14.13
2018-06-16T02:31:00.652Z,14.08
2018-06-16T02:35:56.621Z,14.07
2018-06-16T02:40:51.025Z,13.94
2018-06-16T02:45:45.216Z,13.85
2018-06-16T02:50:39.665Z,13.85
2018-06-16T02:55:34.115Z,13.84
2018-06-16T03:00:28.581Z,13.79
2018-06-16T03:05:23.024Z,13.80
2018-06-16T03:10:17.527Z,13.74
2018-06-16T03:15:11.976Z,13.72
2018-06-16T03:20:07.141Z,13.70
2018-06-16T03:25:01.613Z,13.66
2018-06-16T03:29:56.110Z,13.68
2018-06-16T03:34:50.557Z,13.59
2018-06-16T03:39:45.029Z,13.63
2018-06-16T03:44:39.480Z,13.71
2018-06-16T03:49:33.916Z,13.91
2018-06-16T03:54:28.341Z,14.22
2018-06-16T03:59:22.769Z,15.41
2018-06-16T04:04:17.473Z,16.25
2018-06-16T04:09:12.214Z,17.25
2018-06-16T04:14:06.820Z,18.44
2018-06-16T04:19:01.270Z,19.40
2018-06-16T04:23:55.783Z,20.23
2018-06-16T04:28:50.261Z,20.93
2018-06-16T04:33:44.725Z,21.79
2018-06-16T04:38:39.201Z,22.49
2018-06-16T04:43:33.677Z,23.30
2018-06-16T04:48:28.172Z,23.88
2018-06-16T04:53:22.611Z,24.65
2018-06-16T04:58:17.025Z,24.87
2018-06-16T05:03:11.479Z,25.66
2018-06-16T05:08:06.029Z,26.12
2018-06-16T05:13:00.526Z,26.37
2018-06-16T05:17:54.967Z,26.64
2018-06-16T05:22:49.408Z,27.48
2018-06-16T05:27:43.826Z,27.63
2018-06-16T05:32:38.396Z,27.43
2018-06-16T05:37:32.864Z,27.74
2018-06-16T05:42:27.380Z,27.84
2018-06-16T05:47:22.001Z,28.68
2018-06-16T05:52:17.186Z,28.41
2018-06-16T05:57:11.706Z,27.69
2018-06-16T06:02:06.204Z,26.34
2018-06-16T06:07:00.655Z,27.32
2018-06-16T06:11:55.116Z,27.63
2018-06-16T06:16:49.586Z,27.59
2018-06-16T06:21:43.992Z,26.31
2018-06-16T06:26:38.392Z,25.44
2018-06-16T06:31:32.512Z,24.96
2018-06-16T06:36:26.951Z,24.21
2018-06-16T06:41:21.426Z,24.12
2018-06-16T06:46:15.881Z,23.86
2018-06-16T06:51:10.444Z,23.46
2018-06-16T06:56:04.961Z,23.76
2018-06-16T07:00:59.461Z,24.16
2018-06-16T07:05:53.873Z,24.77
2018-06-16T07:10:48.374Z,24.40
2018-06-16T07:15:42.825Z,23.87
2018-06-16T07:20:37.361Z,23.88
2018-06-16T07:25:31.778Z,23.38
2018-06-16T07:30:26.817Z,22.76
2018-06-16T07:35:21.270Z,22.96
2018-06-16T07:40:15.681Z,23.25
2018-06-16T07:45:09.859Z,22.79
2018-06-16T07:50:04.416Z,23.46
2018-06-16T07:55:00.517Z,23.84
2018-06-16T07:59:54.633Z,24.20
2018-06-16T08:04:49.056Z,24.26
2018-06-16T08:14:44.047Z,24.33
2018-06-16T08:19:38.477Z,24.63
2018-06-16T08:24:32.933Z,24.73
2018-06-16T08:29:27.396Z,24.92
2018-06-16T08:34:21.836Z,25.43
2018-06-16T08:39:16.248Z,25.26
2018-06-16T08:44:10.779Z,25.49
2018-06-16T08:49:05.421Z,25.30
2018-06-16T08:53:59.884Z,25.00
2018-06-16T08:58:54.388Z,23.59
2018-06-16T09:03:49.804Z,23.67
2018-06-16T09:08:44.281Z,23.95
2018-06-16T09:13:38.930Z,23.71
2018-06-16T09:18:33.446Z,23.73
2018-06-16T09:23:28.045Z,24.11
2018-06-16T09:28:22.596Z,23.85
2018-06-16T09:33:17.233Z,23.89
2018-06-16T09:38:11.725Z,23.73
2018-06-16T09:43:06.237Z,23.94
2018-06-16T09:48:00.650Z,24.13
2018-06-16T09:52:55.206Z,24.78
2018-06-16T09:57:49.661Z,24.85
2018-06-16T10:02:44.602Z,25.20
2018-06-16T10:07:39.100Z,25.10
2018-06-16T10:12:33.532Z,25.35
2018-06-16T10:17:28.113Z,25.57
2018-06-16T10:22:22.609Z,26.03
2018-06-16T10:27:17.097Z,25.91
2018-06-16T10:32:11.608Z,26.39
2018-06-16T10:37:06.209Z,26.55
2018-06-16T10:42:00.632Z,26.75
2018-06-16T10:46:55.133Z,26.91
2018-06-16T10:51:49.569Z,26.89
2018-06-16T10:56:44.132Z,26.73
2018-06-16T11:02:41.149Z,26.54
2018-06-16T11:07:35.646Z,26.85
2018-06-16T11:12:30.130Z,27.06
2018-06-16T11:17:24.534Z,27.62
2018-06-16T11:22:19.017Z,27.81
2018-06-16T11:27:13.521Z,27.68
2018-06-16T11:32:08.001Z,27.83
2018-06-16T11:37:02.132Z,27.81
2018-06-16T11:41:56.590Z,27.60
2018-06-16T11:46:50.740Z,26.75
2018-06-16T11:51:45.220Z,27.39
2018-06-16T11:56:39.697Z,26.41
2018-06-16T12:01:34.250Z,26.52
2018-06-16T12:06:28.693Z,27.19
2018-06-16T12:11:23.529Z,26.80
2018-06-16T12:16:17.932Z,27.46
2018-06-16T12:21:12.372Z,27.82
2018-06-16T12:26:06.812Z,27.34
2018-06-16T12:31:01.232Z,26.73
2018-06-16T12:35:55.650Z,27.27
2018-06-16T12:40:50.188Z,27.69
2018-06-16T12:45:44.672Z,28.08
2018-06-16T12:50:39.192Z,27.96
2018-06-16T12:55:33.601Z,28.50
2018-06-16T13:00:28.075Z,27.09
2018-06-16T13:05:22.564Z,27.01
2018-06-16T13:10:17.125Z,27.54
2018-06-16T13:15:11.257Z,27.66
2018-06-16T13:20:05.726Z,27.94
2018-06-16T13:25:00.133Z,28.28
2018-06-16T13:29:54.741Z,28.37
2018-06-16T13:34:49.140Z,28.56
2018-06-16T13:39:43.711Z,28.67
2018-06-16T13:44:38.174Z,28.44
2018-06-16T13:49:32.768Z,28.43
2018-06-16T13:54:27.184Z,28.43
2018-06-16T13:59:21.624Z,27.03
2018-06-16T14:04:16.057Z,27.00
2018-06-16T14:09:11.249Z,27.16
2018-06-16T14:14:05.792Z,27.42
2018-06-16T14:19:00.301Z,27.85
2018-06-16T14:23:55.540Z,28.23
2018-06-16T14:28:50.098Z,28.64
2018-06-16T14:33:44.724Z,28.70
2018-06-16T14:38:39.164Z,28.70
2018-06-16T14:43:33.722Z,28.29
2018-06-16T14:48:27.882Z,28.98
2018-06-16T14:53:22.331Z,28.75
2018-06-16T14:58:16.776Z,28.89
2018-06-16T15:03:11.287Z,29.06
2018-06-16T15:08:05.804Z,29.47
2018-06-16T15:13:00.214Z,29.04
2018-06-16T15:17:54.728Z,29.24
2018-06-16T15:22:49.148Z,29.16
2018-06-16T15:27:43.620Z,28.51
2018-06-16T15:32:38.074Z,28.57
2018-06-16T15:37:32.480Z,28.21
2018-06-16T15:42:26.945Z,28.41
2018-06-16T15:47:21.373Z,28.67
2018-06-16T15:52:15.788Z,28.79
2018-06-16T15:57:09.971Z,28.63
2018-06-16T16:02:04.354Z,28.48
2018-06-16T16:06:58.902Z,27.92
2018-06-16T16:11:53.475Z,28.13
2018-06-16T16:16:47.925Z,28.16
2018-06-16T16:21:42.429Z,28.31
2018-06-16T16:26:36.902Z,27.83
2018-06-16T16:31:31.381Z,28.20
2018-06-16T16:36:25.904Z,28.36
2018-06-16T16:41:20.339Z,28.55
2018-06-16T16:46:14.919Z,28.27
2018-06-16T16:51:09.375Z,28.20
2018-06-16T16:56:03.852Z,28.30
2018-06-16T17:00:58.005Z,27.94
2018-06-16T17:05:52.453Z,27.94
2018-06-16T17:10:46.972Z,27.82
2018-06-16T17:15:41.436Z,27.69
2018-06-16T17:20:35.897Z,27.68
2018-06-16T17:25:30.288Z,27.50
2018-06-16T17:30:24.709Z,27.63
2018-06-16T17:35:19.095Z,27.71
2018-06-16T17:40:13.549Z,27.61
2018-06-16T17:45:08.041Z,27.56
2018-06-16T17:50:02.529Z,27.45
2018-06-16T17:54:56.978Z,27.30
2018-06-16T17:59:51.427Z,27.26
2018-06-16T18:04:45.862Z,27.10
2018-06-16T18:09:40.274Z,26.88
2018-06-16T18:14:34.794Z,26.62
2018-06-16T18:19:29.227Z,26.36
2018-06-16T18:24:23.664Z,26.16
2018-06-16T18:29:18.081Z,25.82
2018-06-16T18:34:12.528Z,25.55
2018-06-16T18:39:10.180Z,25.33
2018-06-16T18:44:04.874Z,25.10
2018-06-16T18:48:59.360Z,24.91
2018-06-16T18:53:53.985Z,24.73
2018-06-16T18:58:48.497Z,24.62
2018-06-16T19:03:43.752Z,24.44
2018-06-16T19:08:38.214Z,24.16
2018-06-16T19:13:32.671Z,24.30
2018-06-16T19:18:27.096Z,23.93
2018-06-16T19:23:21.534Z,23.62
2018-06-16T19:28:16.043Z,23.38
2018-06-16T19:33:10.534Z,23.19
2018-06-16T19:38:05.056Z,23.09
2018-06-16T19:42:59.504Z,22.98
2018-06-16T19:47:53.979Z,22.89
2018-06-16T19:52:48.467Z,22.85
2018-06-16T19:57:42.940Z,22.75
2018-06-16T20:02:37.453Z,22.60
2018-06-16T20:07:31.957Z,22.47
2018-06-16T20:12:26.601Z,22.31
2018-06-16T20:17:21.080Z,22.25
2018-06-16T20:22:15.526Z,22.16
2018-06-16T20:27:09.960Z,22.12
2018-06-16T20:32:04.485Z,22.11
2018-06-16T20:36:58.929Z,22.08
2018-06-16T20:41:53.553Z,21.98
2018-06-16T20:46:48.078Z,21.93
2018-06-16T20:51:42.505Z,21.89
2018-06-16T20:56:36.987Z,21.91
2018-06-16T21:01:31.469Z,21.91
2018-06-16T21:06:26.013Z,21.91
2018-06-16T21:11:20.459Z,21.90
2018-06-16T21:16:14.896Z,21.82
2018-06-16T21:21:09.368Z,21.80
2018-06-16T21:26:03.816Z,21.69
2018-06-16T21:30:58.967Z,21.68
2018-06-16T21:35:53.445Z,21.60
2018-06-16T21:40:47.776Z,21.46
2018-06-16T21:45:42.209Z,21.39
2018-06-16T21:50:36.645Z,21.35
2018-06-16T21:55:31.080Z,21.29
2018-06-16T22:00:29.582Z,21.14
2018-06-16T22:05:24.000Z,21.00
2018-06-16T22:10:18.559Z,20.86
2018-06-16T22:15:13.094Z,20.77
2018-06-16T22:20:07.584Z,20.58
2018-06-16T22:25:01.993Z,20.47
2018-06-16T22:29:56.472Z,20.24
2018-06-16T22:34:51.273Z,20.10
2018-06-16T22:39:45.729Z,20.07
2018-06-16T22:44:40.210Z,20.00
2018-06-16T22:49:34.613Z,19.84
2018-06-16T22:54:29.050Z,19.67
2018-06-16T22:59:23.521Z,19.66
2018-06-16T23:04:17.961Z,19.62
2018-06-16T23:09:12.989Z,19.57
2018-06-16T23:14:07.595Z,19.44
2018-06-16T23:19:02.005Z,19.35
2018-06-16T23:24:02.065Z,19.22
2018-06-16T23:28:56.486Z,19.13
2018-06-16T23:33:50.940Z,19.02
2018-06-16T23:38:45.361Z,18.91
2018-06-16T23:43:39.820Z,18.81
2018-06-16T23:48:34.301Z,18.74
2018-06-16T23:53:28.761Z,18.77
2018-06-16T23:58:23.197Z,18.74
